Asbury, Illinois
Current Conditions -  °F | °C
As of 4:15 PM on Tuesday 21 Oct 2014 (Local Time) from KCUL Reporting Station
Scattered Clouds Scattered Clouds  
Wind Chill: 64°   Ceiling: Unl
Heat Index: 64°   Visibility: 10mi
Dew Point: 46°   Wind: 8mph
Humidity: 52%   Direction: 340°NNW
Pressure: 30.1"   Gusts: NA
Location:  37.8866°N, 88.266°W
Report Text: KCUL 212115Z AUTO 34007KT 10SM SCT047 18/08 A3010 RMK AO2 T01770078
Loading
Personal Weather Stations






























Interactive Weather Map
Tropical Storm Tracking
New forecast layout! Learn more

10-Day Weather Forecast

Advertisements
Track Severe Weather on mobile